Time;durP1;ratioP1;P1;durP2;ratioP2;P2;SDS_P1;SDS_P2;PMS_P1;PMS_P2;Temp;Humidity;BMP_temperature;BMP_pressure;BME280_temperature;BME280_humidity;BME280_pressure;Samples;Min_cycle;Max_cycle;Signal;HPM_P1;HPM_P2
2023/04/10 00:00:44;;;;;;;40.73;36.70;;;7.80;99.90;;;;;;4936598;29;20459;-74
2023/04/10 00:03:12;;;;;;;40.90;37.07;;;7.80;99.90;;;;;;4936673;29;20571;-75
2023/04/10 00:05:41;;;;;;;41.30;37.20;;;7.80;99.90;;;;;;4936822;29;20452;-75
2023/04/10 00:08:10;;;;;;;37.87;34.17;;;7.80;99.90;;;;;;4936485;29;20550;-74
2023/04/10 00:10:38;;;;;;;40.00;36.10;;;7.80;99.90;;;;;;4937860;29;20978;-74
2023/04/10 00:13:06;;;;;;;40.90;36.90;;;7.70;99.90;;;;;;4937664;29;20463;-75
2023/04/10 00:15:35;;;;;;;39.90;35.97;;;7.70;99.90;;;;;;4935635;29;20449;-74
2023/04/10 00:18:03;;;;;;;39.17;35.43;;;7.70;99.90;;;;;;4937631;29;20443;-74
2023/04/10 00:20:31;;;;;;;41.10;37.10;;;7.70;99.90;;;;;;4937587;29;20533;-74
2023/04/10 00:22:59;;;;;;;41.27;37.27;;;7.70;99.90;;;;;;4937558;29;20555;-75
2023/04/10 00:25:29;;;;;;;41.77;37.70;;;7.70;99.90;;;;;;4936189;29;20459;-75
2023/04/10 00:27:57;;;;;;;41.87;37.77;;;7.70;99.90;;;;;;4937786;29;21016;-74
2023/04/10 00:30:25;;;;;;;42.20;38.13;;;7.60;99.90;;;;;;4936103;29;20480;-74
2023/04/10 00:32:53;;;;;;;42.97;38.73;;;7.70;99.90;;;;;;4935895;29;21040;-75
2023/04/10 00:35:22;;;;;;;42.40;38.10;;;7.60;99.90;;;;;;4935947;29;20455;-74
2023/04/10 00:37:50;;;;;;;42.07;37.87;;;7.60;99.90;;;;;;4935942;29;20453;-74
2023/04/10 00:40:18;;;;;;;45.50;40.80;;;7.60;99.90;;;;;;4935841;29;20494;-74
2023/04/10 00:42:47;;;;;;;44.40;39.93;;;7.60;99.90;;;;;;4935926;29;20494;-75
2023/04/10 00:45:15;;;;;;;41.70;37.60;;;7.60;99.90;;;;;;4935770;29;20448;-74
2023/04/10 00:47:44;;;;;;;44.63;40.27;;;7.60;99.90;;;;;;4935814;29;20443;-74
2023/04/10 00:50:12;;;;;;;43.97;39.47;;;7.60;99.90;;;;;;4935526;29;20502;-74
2023/04/10 00:52:40;;;;;;;45.07;40.77;;;7.60;99.90;;;;;;4935584;29;21006;-74
2023/04/10 00:55:09;;;;;;;47.97;42.97;;;7.60;99.90;;;;;;4935639;29;20457;-74
2023/04/10 00:57:38;;;;;;;48.37;43.47;;;7.60;99.90;;;;;;4935487;29;20495;-74
2023/04/10 01:00:09;;;;;;;46.17;41.57;;;7.60;99.90;;;;;;4937034;29;20445;-74
2023/04/10 01:02:37;;;;;;;47.13;42.63;;;7.60;99.90;;;;;;4937083;29;20458;-74
2023/04/10 01:05:07;;;;;;;48.07;43.33;;;7.60;99.90;;;;;;4936734;29;20447;-75
2023/04/10 01:07:49;;;;;;;46.30;41.73;;;7.60;99.90;;;;;;4935888;29;20566;-74
2023/04/10 01:10:20;;;;;;;48.67;43.77;;;7.50;99.90;;;;;;4937334;29;20633;-74
2023/04/10 01:12:59;;;;;;;47.57;42.77;;;7.50;99.90;;;;;;4935365;29;20506;-74
2023/04/10 01:15:32;;;;;;;47.50;42.90;;;7.50;99.90;;;;;;4935462;29;20453;-75
2023/04/10 01:18:07;;;;;;;48.17;43.37;;;7.50;99.90;;;;;;4935449;29;20446;-74
2023/04/10 01:20:40;;;;;;;47.70;42.77;;;7.50;99.90;;;;;;4935208;29;20509;-75
2023/04/10 01:23:43;;;;;;;47.20;42.37;;;7.50;99.90;;;;;;4936416;29;20534;-74
2023/04/10 01:26:16;;;;;;;44.97;40.40;;;7.40;99.90;;;;;;4894764;29;20517;-74
2023/04/10 01:29:00;;;;;;;46.83;42.23;;;7.40;99.90;;;;;;4935148;29;20553;-74
2023/04/10 01:31:36;;;;;;;50.10;45.00;;;7.40;99.90;;;;;;4935056;29;20494;-74
2023/04/10 01:34:08;;;;;;;48.23;43.50;;;7.40;99.90;;;;;;4935096;29;20961;-74
2023/04/10 01:36:47;;;;;;;49.73;44.57;;;7.30;99.90;;;;;;4935246;29;20828;-74
2023/04/10 01:39:19;;;;;;;48.50;43.70;;;7.40;99.90;;;;;;4935124;29;20453;-74
2023/04/10 01:41:50;;;;;;;49.60;44.90;;;7.40;99.90;;;;;;4936131;29;20473;-75
2023/04/10 01:44:25;;;;;;;48.30;43.53;;;7.40;99.90;;;;;;4934973;29;20483;-74
2023/04/10 01:46:55;;;;;;;47.40;42.60;;;7.40;99.90;;;;;;4934868;29;20455;-74
2023/04/10 01:49:26;;;;;;;48.00;43.37;;;7.30;99.90;;;;;;4934814;29;20455;-74
2023/04/10 01:52:02;;;;;;;46.17;41.63;;;7.30;99.90;;;;;;4934736;29;20489;-74
2023/04/10 01:54:32;;;;;;;48.40;43.77;;;7.40;99.90;;;;;;4934688;29;20457;-74
2023/04/10 01:57:03;;;;;;;49.27;44.30;;;7.30;99.90;;;;;;4935775;29;20868;-74
2023/04/10 01:59:41;;;;;;;48.70;44.03;;;7.30;99.90;;;;;;4934772;29;20443;-74
2023/04/10 02:02:10;;;;;;;47.17;42.50;;;7.30;99.90;;;;;;4934526;29;20552;-74
2023/04/10 02:04:39;;;;;;;48.03;43.20;;;7.30;99.90;;;;;;4935998;29;20431;-74
2023/04/10 02:07:16;;;;;;;47.70;43.10;;;7.30;99.90;;;;;;4934488;29;20467;-74
2023/04/10 02:10:04;;;;;;;47.93;43.27;;;7.30;99.90;;;;;;4935995;29;20427;-75
2023/04/10 02:12:37;;;;;;;47.67;42.77;;;7.20;99.90;;;;;;4934367;29;20491;-74
2023/04/10 02:15:08;;;;;;;48.30;43.47;;;7.20;99.90;;;;;;4934472;29;20961;-74
2023/04/10 02:17:38;;;;;;;48.33;43.67;;;7.20;99.90;;;;;;4935924;29;20896;-74
2023/04/10 02:20:09;;;;;;;47.87;43.17;;;7.20;99.90;;;;;;4935572;29;20488;-75
2023/04/10 02:22:37;;;;;;;50.40;45.50;;;7.20;99.90;;;;;;4934254;29;20478;-74
2023/04/10 02:25:07;;;;;;;50.37;45.43;;;7.20;99.90;;;;;;4935842;29;20457;-74
2023/04/10 02:27:37;;;;;;;49.93;44.97;;;7.10;99.90;;;;;;4934525;29;20946;-75
2023/04/10 02:30:08;;;;;;;49.10;44.10;;;7.10;99.90;;;;;;4934277;29;20446;-74
2023/04/10 02:32:36;;;;;;;50.13;45.10;;;7.10;99.90;;;;;;4934151;29;20577;-75
2023/04/10 02:35:08;;;;;;;49.83;44.63;;;7.10;99.90;;;;;;4934482;29;20440;-74
2023/04/10 02:37:37;;;;;;;52.57;47.13;;;7.10;99.90;;;;;;4934267;29;20460;-74
2023/04/10 02:40:07;;;;;;;49.00;44.17;;;7.00;99.90;;;;;;4936929;29;20454;-74
2023/04/10 02:42:46;;;;;;;47.77;43.17;;;7.00;99.90;;;;;;4938140;29;20569;-74
2023/04/10 02:45:15;;;;;;;48.87;43.93;;;7.00;99.90;;;;;;4937963;29;20954;-75
2023/04/10 02:47:44;;;;;;;50.23;45.27;;;7.00;99.90;;;;;;4938077;29;20514;-74
2023/04/10 02:50:12;;;;;;;50.33;45.40;;;7.00;99.90;;;;;;4937887;29;20480;-74
2023/04/10 02:52:44;;;;;;;51.13;46.17;;;6.90;99.90;;;;;;4937761;29;20523;-74
2023/04/10 02:55:12;;;;;;;49.77;44.00;;;6.90;99.90;;;;;;4938983;29;20850;-74
2023/04/10 02:57:42;;;;;;;49.43;44.50;;;6.90;99.90;;;;;;4937977;29;20545;-74
2023/04/10 03:00:11;;;;;;;52.70;47.70;;;6.90;99.90;;;;;;4937793;29;20452;-74
2023/04/10 03:03:10;;;;;;;49.47;44.47;;;6.90;99.90;;;;;;4927975;29;20471;-75
2023/04/10 03:05:49;;;;;;;50.70;45.27;;;6.90;99.90;;;;;;4937742;29;20513;-75
2023/04/10 03:08:22;;;;;;;49.73;44.67;;;6.80;99.90;;;;;;4937667;29;20456;-74
2023/04/10 03:10:51;;;;;;;49.97;44.87;;;6.80;99.90;;;;;;4937540;29;20490;-74
2023/04/10 03:13:19;;;;;;;53.47;48.17;;;6.70;99.90;;;;;;4938749;29;20916;-74
2023/04/10 03:15:47;;;;;;;48.40;43.40;;;6.70;99.90;;;;;;4937444;29;20895;-75
2023/04/10 03:18:16;;;;;;;55.93;50.10;;;6.70;99.90;;;;;;4937737;29;20484;-74
2023/04/10 03:20:47;;;;;;;53.13;47.70;;;6.70;99.90;;;;;;4937594;29;20447;-74
2023/04/10 03:23:15;;;;;;;54.07;48.57;;;6.70;99.90;;;;;;4937510;29;20831;-74
2023/04/10 03:25:43;;;;;;;49.67;44.50;;;6.60;99.90;;;;;;4937245;29;20808;-74
2023/04/10 03:28:12;;;;;;;51.70;46.50;;;6.60;99.90;;;;;;4937551;29;20457;-75
2023/04/10 03:30:40;;;;;;;53.30;47.83;;;6.60;99.90;;;;;;4937199;29;20496;-75
2023/04/10 03:33:09;;;;;;;51.90;46.47;;;6.60;99.90;;;;;;4937286;29;20571;-74
2023/04/10 03:35:38;;;;;;;52.47;47.37;;;6.60;99.90;;;;;;4936986;29;20451;-75
2023/04/10 03:38:07;;;;;;;51.83;46.43;;;6.60;99.90;;;;;;4936989;29;20453;-74
2023/04/10 03:40:36;;;;;;;51.50;46.37;;;6.50;99.90;;;;;;4937170;29;20460;-74
2023/04/10 03:43:07;;;;;;;52.43;46.77;;;6.50;99.90;;;;;;4937257;29;20479;-74
2023/04/10 03:45:35;;;;;;;52.83;47.43;;;6.50;99.90;;;;;;4936966;29;20463;-74
2023/04/10 03:48:03;;;;;;;54.60;48.90;;;6.50;99.90;;;;;;4936810;29;20448;-75
2023/04/10 03:50:42;;;;;;;54.20;48.73;;;6.50;99.90;;;;;;4935834;29;20464;-74
2023/04/10 03:53:10;;;;;;;52.80;47.50;;;6.40;99.90;;;;;;4936734;29;20480;-74
2023/04/10 03:55:39;;;;;;;55.63;50.03;;;6.40;99.90;;;;;;4936825;29;20455;-74
2023/04/10 03:58:08;;;;;;;51.40;46.20;;;6.40;99.90;;;;;;4936712;29;20484;-75
2023/04/10 04:00:37;;;;;;;53.43;47.90;;;6.40;99.90;;;;;;4936645;29;20445;-74
2023/04/10 04:03:16;;;;;;;51.90;46.70;;;6.40;99.90;;;;;;4936656;29;20489;-74
2023/04/10 04:05:48;;;;;;;49.63;44.53;;;6.40;99.90;;;;;;4937907;29;20426;-74
2023/04/10 04:08:37;;;;;;;51.17;45.83;;;6.30;99.90;;;;;;4936841;29;20449;-74
2023/04/10 04:11:08;;;;;;;50.67;44.90;;;6.30;99.90;;;;;;4937699;29;20784;-75
2023/04/10 04:13:59;;;;;;;53.57;47.77;;;6.30;99.90;;;;;;4928138;29;20456;-74
2023/04/10 04:16:44;;;;;;;51.33;45.97;;;6.30;99.90;;;;;;4936711;29;20872;-75
2023/04/10 04:19:27;;;;;;;55.23;49.33;;;6.30;99.90;;;;;;4937578;29;20434;-75
2023/04/10 04:22:29;;;;;;;53.43;47.93;;;6.30;99.90;;;;;;4926032;29;20981;-75
2023/04/10 04:25:00;;;;;;;54.60;48.93;;;6.20;99.90;;;;;;4937707;29;20432;-74
2023/04/10 04:27:50;;;;;;;51.27;46.00;;;6.20;99.90;;;;;;4936602;29;20520;-74
2023/04/10 04:30:39;;;;;;;50.47;45.37;;;6.20;99.90;;;;;;4936990;29;20520;-74
2023/04/10 04:33:17;;;;;;;54.97;49.30;;;6.20;99.90;;;;;;4935942;29;21020;-74
2023/04/10 04:36:04;;;;;;;54.70;49.20;;;6.20;99.90;;;;;;4936246;29;20451;-75
2023/04/10 04:38:57;;;;;;;51.10;45.70;;;6.20;99.90;;;;;;4910255;29;20802;-74
2023/04/10 04:41:32;;;;;;;54.30;48.80;;;6.10;99.90;;;;;;4935868;29;20474;-75
2023/04/10 04:44:18;;;;;;;53.40;48.23;;;6.10;99.90;;;;;;4937551;29;20438;-75
2023/04/10 04:47:01;;;;;;;54.37;48.50;;;6.10;99.90;;;;;;4935846;29;20461;-74
2023/04/10 04:49:51;;;;;;;52.90;47.70;;;6.10;99.90;;;;;;4936857;29;21013;-75
2023/04/10 04:52:39;;;;;;;53.57;47.77;;;6.10;99.90;;;;;;4936797;29;20480;-74
2023/04/10 04:55:22;;;;;;;51.10;45.93;;;6.10;99.90;;;;;;4935727;29;20829;-74
2023/04/10 04:57:58;;;;;;;52.77;46.63;;;6.10;99.90;;;;;;4935673;29;20445;-74
2023/04/10 05:00:55;;;;;;;51.37;46.13;;;6.10;99.90;;;;;;4885561;29;20534;-75
2023/04/10 05:03:46;;;;;;;50.70;45.80;;;6.10;99.90;;;;;;4936437;29;20982;-74
2023/04/10 05:06:36;;;;;;;51.37;45.90;;;6.10;99.90;;;;;;4935563;29;20476;-75
2023/04/10 05:09:21;;;;;;;50.17;45.10;;;6.10;99.90;;;;;;4935438;29;20542;-74
2023/04/10 05:12:14;;;;;;;53.17;48.00;;;6.10;99.90;;;;;;4933540;29;20553;-75
2023/04/10 05:15:05;;;;;;;51.53;46.40;;;6.10;99.90;;;;;;4935470;29;20847;-74
2023/04/10 05:17:36;;;;;;;50.40;45.20;;;6.20;99.90;;;;;;4937026;29;20818;-75
2023/04/10 05:20:35;;;;;;;49.30;44.30;;;6.20;99.90;;;;;;4935290;29;20444;-74
2023/04/10 05:23:33;;;;;;;50.07;44.87;;;6.20;99.90;;;;;;4935272;29;20460;-75
2023/04/10 05:26:20;;;;;;;50.67;45.67;;;6.20;99.90;;;;;;4936575;29;20566;-75
2023/04/10 05:29:08;;;;;;;50.07;44.77;;;6.20;99.90;;;;;;4935176;29;20453;-74
2023/04/10 05:31:42;;;;;;;53.33;48.10;;;6.20;99.90;;;;;;4937571;29;20468;-75
2023/04/10 05:34:17;;;;;;;51.97;46.80;;;6.20;99.90;;;;;;4942045;29;20976;-74
2023/04/10 05:37:11;;;;;;;50.87;45.70;;;6.30;99.90;;;;;;4940173;29;20963;-74
2023/04/10 05:39:50;;;;;;;52.80;47.33;;;6.30;99.90;;;;;;4942122;29;20506;-74
2023/04/10 05:42:41;;;;;;;50.17;45.20;;;6.30;99.90;;;;;;4934251;29;20460;-74
2023/04/10 05:45:18;;;;;;;51.23;45.97;;;6.30;99.90;;;;;;4942410;29;20507;-74
2023/04/10 05:47:58;;;;;;;51.43;46.53;;;6.30;99.90;;;;;;4944007;29;20515;-74
2023/04/10 05:50:49;;;;;;;48.20;43.50;;;6.40;99.90;;;;;;4941545;29;20451;-74
2023/04/10 05:53:34;;;;;;;49.43;44.23;;;6.40;99.90;;;;;;4939271;29;21047;-74
2023/04/10 05:56:28;;;;;;;48.93;44.13;;;6.50;99.90;;;;;;4939285;29;20453;-74
2023/04/10 05:59:06;;;;;;;47.17;42.70;;;6.50;99.90;;;;;;4939958;29;20452;-74
2023/04/10 06:02:02;;;;;;;48.17;43.57;;;6.60;99.90;;;;;;4937872;29;20470;-74
2023/04/10 06:04:30;;;;;;;47.77;43.10;;;6.60;99.90;;;;;;4937491;29;20448;-74
2023/04/10 06:07:01;;;;;;;48.07;43.47;;;6.70;99.90;;;;;;4939337;29;20442;-74
2023/04/10 06:09:32;;;;;;;48.20;43.60;;;6.70;99.90;;;;;;4945542;29;20451;-74
2023/04/10 06:12:01;;;;;;;49.20;44.43;;;6.80;99.90;;;;;;4945386;29;20470;-74
2023/04/10 06:14:30;;;;;;;47.87;43.10;;;6.90;99.90;;;;;;4942805;29;20474;-74
2023/04/10 06:16:59;;;;;;;47.80;43.10;;;7.10;99.90;;;;;;4936073;29;20460;-74
2023/04/10 06:19:29;;;;;;;46.30;41.90;;;7.30;99.90;;;;;;4935075;29;20546;-74
2023/04/10 06:21:57;;;;;;;44.53;40.33;;;7.50;99.90;;;;;;4936252;29;20459;-75
2023/04/10 06:24:25;;;;;;;46.77;42.30;;;7.60;99.90;;;;;;4935069;29;20487;-75
2023/04/10 06:26:55;;;;;;;44.13;39.93;;;7.80;99.90;;;;;;4934925;29;20447;-74
2023/04/10 06:29:24;;;;;;;42.40;38.47;;;8.00;99.90;;;;;;4936123;29;20503;-75
2023/04/10 06:31:52;;;;;;;43.83;39.83;;;8.20;99.90;;;;;;4934649;29;20479;-75
2023/04/10 06:34:21;;;;;;;42.00;37.97;;;8.40;99.90;;;;;;4934593;29;20840;-75
2023/04/10 06:37:03;;;;;;;41.93;37.83;;;8.50;99.90;;;;;;4935631;29;20435;-75
2023/04/10 06:39:31;;;;;;;39.80;35.93;;;8.70;99.90;;;;;;4937385;29;20446;-75
2023/04/10 06:42:00;;;;;;;38.63;34.93;;;8.90;99.90;;;;;;4935083;29;20470;-75
2023/04/10 06:44:49;;;;;;;39.03;35.40;;;9.10;99.90;;;;;;4936034;29;20455;-75
2023/04/10 06:47:17;;;;;;;38.63;34.93;;;9.30;99.90;;;;;;4936232;29;20954;-74
2023/04/10 06:49:45;;;;;;;39.33;35.63;;;9.40;99.90;;;;;;4934372;29;20600;-74
2023/04/10 06:52:15;;;;;;;35.33;32.03;;;9.60;99.90;;;;;;4935756;29;20575;-74
2023/04/10 06:55:05;;;;;;;35.13;31.87;;;9.80;99.90;;;;;;4937096;29;20477;-74
2023/04/10 06:57:42;;;;;;;32.43;29.40;;;10.00;99.90;;;;;;4935811;29;20455;-74
2023/04/10 07:00:11;;;;;;;31.80;28.70;;;10.30;99.90;;;;;;4938318;29;20531;-74
2023/04/10 07:02:39;;;;;;;31.73;28.80;;;10.50;99.90;;;;;;4938061;29;21011;-73
2023/04/10 07:05:08;;;;;;;32.30;29.10;;;10.70;99.90;;;;;;4935668;29;20450;-74
2023/04/10 07:07:37;;;;;;;28.80;26.10;;;10.90;99.90;;;;;;4935167;29;20454;-74
2023/04/10 07:10:07;;;;;;;28.93;26.23;;;11.10;99.90;;;;;;4936483;29;20502;-74
2023/04/10 07:12:35;;;;;;;26.03;23.73;;;11.20;99.90;;;;;;4935540;29;20451;-74
2023/04/10 07:15:03;;;;;;;26.07;23.50;;;11.40;99.90;;;;;;4934890;29;20482;-75
2023/04/10 07:17:31;;;;;;;25.47;23.07;;;11.50;99.90;;;;;;4935875;29;20808;-74
2023/04/10 07:19:59;;;;;;;24.60;22.30;;;11.70;99.90;;;;;;4935601;29;20534;-74
2023/04/10 07:22:28;;;;;;;22.73;20.53;;;11.80;99.90;;;;;;4934105;29;20817;-74
2023/04/10 07:24:57;;;;;;;22.67;20.37;;;12.00;99.90;;;;;;4935079;29;20462;-75
2023/04/10 07:27:30;;;;;;;22.87;20.60;;;12.20;99.90;;;;;;4937737;29;21028;-75
2023/04/10 07:30:05;;;;;;;25.40;23.00;;;12.40;99.90;;;;;;4939516;29;20423;-74
2023/04/10 07:32:34;;;;;;;23.27;21.07;;;12.50;99.90;;;;;;4937492;29;20557;-74
2023/04/10 07:35:02;;;;;;;21.73;19.63;;;12.70;99.90;;;;;;4937469;29;20478;-74
2023/04/10 07:37:31;;;;;;;20.87;18.87;;;12.90;99.90;;;;;;4938608;29;20443;-74
2023/04/10 07:40:01;;;;;;;22.03;19.83;;;13.00;99.90;;;;;;4938539;29;20882;-75
2023/04/10 07:42:30;;;;;;;21.30;19.17;;;13.20;99.90;;;;;;4939007;29;20478;-75
2023/04/10 07:44:58;;;;;;;20.70;18.67;;;13.40;99.90;;;;;;4938322;29;20447;-75
2023/04/10 07:47:27;;;;;;;23.33;21.17;;;13.50;99.90;;;;;;4937138;29;20457;-74
2023/04/10 07:49:56;;;;;;;20.00;18.10;;;13.70;99.90;;;;;;4939134;29;20483;-74
2023/04/10 07:52:31;;;;;;;19.93;18.00;;;13.80;99.90;;;;;;4938461;29;20467;-74
2023/04/10 07:55:03;;;;;;;27.47;24.60;;;14.00;99.90;;;;;;4938825;29;20463;-74
2023/04/10 07:57:31;;;;;;;18.77;17.00;;;14.20;99.90;;;;;;4936986;29;20502;-74
2023/04/10 07:59:59;;;;;;;18.90;17.13;;;14.40;99.90;;;;;;4936803;29;20526;-74
2023/04/10 08:02:27;;;;;;;19.40;17.50;;;14.50;99.90;;;;;;4938056;29;20470;-74
2023/04/10 08:04:56;;;;;;;18.37;16.70;;;14.70;99.90;;;;;;4938025;29;20459;-74
2023/04/10 08:07:25;;;;;;;20.20;16.40;;;14.80;99.90;;;;;;4936820;29;20890;-75
2023/04/10 08:09:54;;;;;;;18.67;16.87;;;15.00;99.90;;;;;;4937870;29;20939;-75
2023/04/10 08:12:24;;;;;;;18.53;16.73;;;15.10;99.90;;;;;;4937774;29;20470;-75
2023/04/10 08:14:52;;;;;;;18.20;16.50;;;15.20;99.90;;;;;;4936519;29;20497;-75
2023/04/10 08:17:20;;;;;;;17.53;15.93;;;15.30;99.90;;;;;;4936727;29;20451;-75
2023/04/10 08:19:48;;;;;;;18.30;16.60;;;15.40;99.90;;;;;;4937775;29;20451;-75
2023/04/10 08:22:16;;;;;;;18.43;16.50;;;15.50;99.90;;;;;;4936340;29;20479;-75
2023/04/10 08:24:44;;;;;;;16.53;15.00;;;15.60;99.90;;;;;;4936454;29;20458;-75
2023/04/10 08:27:14;;;;;;;17.70;16.10;;;15.80;99.90;;;;;;4936356;29;20618;-75
2023/04/10 08:29:44;;;;;;;17.93;16.17;;;15.90;99.90;;;;;;4937580;29;20959;-75
2023/04/10 08:32:12;;;;;;;16.87;15.27;;;16.00;99.90;;;;;;4936587;29;20467;-74
2023/04/10 08:34:40;;;;;;;17.67;16.07;;;16.10;99.90;;;;;;4939374;29;20471;-75
2023/04/10 08:37:11;;;;;;;18.37;16.67;;;16.20;99.90;;;;;;4935940;29;20445;-75
2023/04/10 08:39:39;;;;;;;15.60;14.20;;;16.30;99.90;;;;;;4936838;29;20505;-74
2023/04/10 08:42:08;;;;;;;16.83;15.23;;;16.40;99.90;;;;;;4936390;29;20471;-74
2023/04/10 08:44:37;;;;;;;18.07;16.40;;;16.50;99.90;;;;;;4937594;29;20456;-74
2023/04/10 08:47:09;;;;;;;17.83;16.17;;;16.60;99.90;;;;;;4937341;29;20406;-74
2023/04/10 08:49:53;;;;;;;17.27;15.67;;;16.70;99.90;;;;;;4937339;29;20497;-74
2023/04/10 08:52:24;;;;;;;15.87;14.27;;;16.80;99.90;;;;;;4937102;29;20441;-74
2023/04/10 08:54:55;;;;;;;15.47;14.00;;;16.90;99.90;;;;;;4937434;29;20445;-74
2023/04/10 08:57:25;;;;;;;14.73;13.33;;;17.00;99.90;;;;;;4937687;29;20901;-74
2023/04/10 08:59:53;;;;;;;15.60;13.97;;;17.00;99.90;;;;;;4937384;29;20406;-74
2023/04/10 09:02:24;;;;;;;15.60;14.10;;;17.00;99.90;;;;;;4935588;29;20457;-74
2023/04/10 09:04:55;;;;;;;15.90;14.40;;;17.10;99.90;;;;;;4936133;29;20461;-74
2023/04/10 09:07:23;;;;;;;16.00;14.50;;;17.20;99.90;;;;;;4935675;29;20430;-74
2023/04/10 09:09:51;;;;;;;15.13;13.63;;;17.30;99.90;;;;;;4936867;29;20936;-74
2023/04/10 09:12:19;;;;;;;13.50;12.23;;;17.30;99.90;;;;;;4935548;29;20455;-74
2023/04/10 09:14:52;;;;;;;15.23;13.50;;;17.40;99.90;;;;;;4935547;29;21008;-74
2023/04/10 09:17:21;;;;;;;14.20;12.90;;;17.40;99.90;;;;;;4936984;29;20810;-75
2023/04/10 09:19:52;;;;;;;14.90;13.53;;;17.40;99.90;;;;;;4935431;29;20469;-75
2023/04/10 09:22:30;;;;;;;14.20;12.50;;;17.50;99.90;;;;;;4937006;29;20459;-75
2023/04/10 09:24:59;;;;;;;13.57;12.27;;;17.50;99.90;;;;;;4936974;29;20416;-74
2023/04/10 09:27:31;;;;;;;13.33;12.03;;;17.50;99.80;;;;;;4936508;29;20977;-74
2023/04/10 09:29:59;;;;;;;13.33;12.03;;;17.50;99.60;;;;;;4935312;29;20517;-75
2023/04/10 09:32:39;;;;;;;14.10;12.73;;;17.50;99.40;;;;;;4935214;29;20477;-75
2023/04/10 09:35:10;;;;;;;11.80;10.70;;;17.60;99.10;;;;;;4935120;29;21044;-75
2023/04/10 09:37:40;;;;;;;14.20;12.80;;;17.60;99.30;;;;;;4935208;29;20415;-74
2023/04/10 09:40:20;;;;;;;12.83;11.53;;;17.70;99.30;;;;;;4936622;29;20414;-75
2023/04/10 09:42:49;;;;;;;13.37;12.07;;;17.80;99.00;;;;;;4935216;29;20441;-75
2023/04/10 09:45:18;;;;;;;12.33;11.23;;;17.90;98.90;;;;;;4935024;29;20434;-75
2023/04/10 09:48:02;;;;;;;12.10;10.90;;;17.90;99.00;;;;;;4934875;29;20437;-75
2023/04/10 09:50:36;;;;;;;13.07;11.50;;;18.00;98.50;;;;;;4934656;29;20792;-75
2023/04/10 09:53:08;;;;;;;12.80;11.60;;;18.00;98.40;;;;;;4936514;29;20434;-75
2023/04/10 09:55:37;;;;;;;12.90;11.70;;;18.10;98.30;;;;;;4934814;29;20533;-75
2023/04/10 09:58:05;;;;;;;14.80;12.17;;;18.10;98.30;;;;;;4936431;29;20762;-75
2023/04/10 10:00:39;;;;;;;12.53;10.73;;;18.20;98.30;;;;;;4936292;29;20414;-75
2023/04/10 10:03:10;;;;;;;11.67;10.57;;;18.20;98.00;;;;;;4936009;29;20453;-75
2023/04/10 10:05:41;;;;;;;11.40;10.30;;;18.30;97.80;;;;;;4934826;29;21014;-75
2023/04/10 10:08:11;;;;;;;11.90;10.70;;;18.30;97.50;;;;;;4934814;29;20444;-75
2023/04/10 10:10:45;;;;;;;10.93;9.87;;;18.30;97.20;;;;;;4935998;29;20448;-74
2023/04/10 10:13:17;;;;;;;12.37;11.07;;;18.40;97.20;;;;;;4936088;29;20518;-75
2023/04/10 10:15:54;;;;;;;13.03;11.63;;;18.40;97.10;;;;;;4934822;29;20479;-75
2023/04/10 10:18:31;;;;;;;12.67;11.37;;;18.40;96.90;;;;;;4934655;29;20462;-75
2023/04/10 10:21:02;;;;;;;11.40;9.93;;;18.40;96.80;;;;;;4934698;29;20831;-75
2023/04/10 10:23:33;;;;;;;12.07;10.87;;;18.40;96.90;;;;;;4936079;29;20415;-75
2023/04/10 10:26:05;;;;;;;11.20;10.20;;;18.40;96.50;;;;;;4935869;29;20459;-75
2023/04/10 10:28:34;;;;;;;12.27;10.97;;;18.40;96.20;;;;;;4934576;29;20910;-75
2023/04/10 10:31:03;;;;;;;11.60;10.40;;;18.40;96.10;;;;;;4935620;29;20449;-75
2023/04/10 10:33:35;;;;;;;11.43;9.80;;;18.40;95.90;;;;;;4934385;29;20955;-75
2023/04/10 10:36:06;;;;;;;14.53;11.07;;;18.50;95.70;;;;;;4934464;29;20475;-75
2023/04/10 10:38:38;;;;;;;10.57;9.50;;;18.50;95.70;;;;;;4936345;29;20422;-75
2023/04/10 10:41:13;;;;;;;10.60;9.70;;;18.50;95.80;;;;;;4935650;29;20406;-75
2023/04/10 10:43:50;;;;;;;11.37;10.30;;;18.50;95.30;;;;;;4934868;29;20454;-75
2023/04/10 10:46:28;;;;;;;10.97;9.87;;;18.50;95.00;;;;;;4935979;29;20423;-75
2023/04/10 10:48:57;;;;;;;11.43;10.23;;;18.50;94.90;;;;;;4935757;29;20458;-75
2023/04/10 10:51:42;;;;;;;10.63;9.63;;;18.40;94.90;;;;;;4936024;29;20440;-75
2023/04/10 10:54:30;;;;;;;10.20;9.10;;;18.40;94.90;;;;;;4936055;29;20526;-75
2023/04/10 10:56:59;;;;;;;11.60;10.40;;;18.50;94.80;;;;;;4935754;29;20499;-75
2023/04/10 10:59:56;;;;;;;9.47;8.60;;;18.50;94.80;;;;;;4934265;29;20970;-75
2023/04/10 11:02:24;;;;;;;12.80;10.20;;;18.60;94.40;;;;;;4939106;29;20434;-75
2023/04/10 11:04:52;;;;;;;10.80;9.70;;;18.60;94.40;;;;;;4937905;29;20530;-75
2023/04/10 11:07:42;;;;;;;10.33;9.23;;;18.60;94.30;;;;;;4937885;29;20425;-75
2023/04/10 11:10:10;;;;;;;9.97;9.07;;;18.70;94.50;;;;;;4937704;29;20452;-75
2023/04/10 11:13:16;;;;;;;11.43;10.33;;;18.70;94.20;;;;;;4937710;29;20475;-75
2023/04/10 11:15:45;;;;;;;10.67;8.57;;;18.70;93.90;;;;;;4937599;29;20515;-75
2023/04/10 11:18:14;;;;;;;12.80;8.63;;;18.80;93.90;;;;;;4937897;29;20447;-75
2023/04/10 11:21:09;;;;;;;9.47;8.57;;;18.80;93.70;;;;;;4937640;29;20825;-75
2023/04/10 11:24:04;;;;;;;10.37;8.13;;;18.80;93.60;;;;;;4938733;29;20777;-75
2023/04/10 11:26:40;;;;;;;9.33;8.43;;;18.90;93.30;;;;;;4937747;29;20947;-75
2023/04/10 11:29:33;;;;;;;11.47;8.30;;;18.90;93.40;;;;;;4938686;29;20410;-76
2023/04/10 11:32:02;;;;;;;11.67;8.77;;;18.90;93.20;;;;;;4938707;29;20835;-75
2023/04/10 11:34:31;;;;;;;9.60;8.70;;;18.90;93.20;;;;;;4937317;29;20506;-76
2023/04/10 11:37:01;;;;;;;10.23;9.23;;;18.90;93.20;;;;;;4938503;29;20519;-75
2023/04/10 11:39:32;;;;;;;10.53;9.50;;;18.90;93.00;;;;;;4937639;29;20447;-75
2023/04/10 11:42:00;;;;;;;10.30;9.23;;;18.90;92.90;;;;;;4937296;29;20486;-75
2023/04/10 11:44:30;;;;;;;9.37;8.47;;;18.90;92.80;;;;;;4938374;29;20513;-75
2023/04/10 11:46:59;;;;;;;14.63;12.27;;;18.90;92.80;;;;;;4938393;29;20422;-75
2023/04/10 11:49:30;;;;;;;10.60;9.60;;;18.80;92.70;;;;;;4936882;29;20490;-75
2023/04/10 11:51:58;;;;;;;9.33;8.33;;;18.80;92.50;;;;;;4938280;29;20481;-76
2023/04/10 11:54:27;;;;;;;10.63;9.60;;;18.70;92.40;;;;;;4936949;29;20428;-76
2023/04/10 11:56:59;;;;;;;9.03;8.13;;;18.70;92.40;;;;;;4936958;29;20442;-76
2023/04/10 11:59:28;;;;;;;10.07;9.17;;;18.70;92.40;;;;;;4938449;29;20520;-76
2023/04/10 12:02:05;;;;;;;11.17;10.07;;;18.70;92.30;;;;;;4936819;29;20478;-76
2023/04/10 12:04:33;;;;;;;10.60;8.90;;;18.70;92.20;;;;;;4937484;29;20424;-76
2023/04/10 12:07:03;;;;;;;9.87;8.93;;;18.70;92.30;;;;;;4938108;29;20947;-76
2023/04/10 12:09:31;;;;;;;11.00;9.17;;;18.70;92.20;;;;;;4936686;29;20538;-76
2023/04/10 12:12:02;;;;;;;9.77;8.43;;;18.80;92.20;;;;;;4935875;29;21002;-76
2023/04/10 12:14:35;;;;;;;9.67;8.67;;;18.80;92.20;;;;;;4936692;29;20454;-76
2023/04/10 12:17:05;;;;;;;11.50;10.30;;;18.90;92.30;;;;;;4936575;29;20810;-76
2023/04/10 12:19:34;;;;;;;11.00;9.87;;;18.90;92.20;;;;;;4938087;29;20422;-76
2023/04/10 12:22:03;;;;;;;9.90;8.90;;;18.90;92.10;;;;;;4936691;29;20491;-76
2023/04/10 12:24:43;;;;;;;9.60;8.70;;;19.00;92.10;;;;;;4936727;29;21042;-76
2023/04/10 12:27:19;;;;;;;9.87;8.97;;;19.00;91.90;;;;;;4936506;29;20447;-76
2023/04/10 12:29:49;;;;;;;9.30;8.40;;;19.00;91.80;;;;;;4936434;29;20444;-76
2023/04/10 12:32:21;;;;;;;9.97;8.97;;;19.00;91.70;;;;;;4936385;29;20512;-77
2023/04/10 12:34:56;;;;;;;11.00;9.90;;;19.00;91.40;;;;;;4936268;29;20450;-77
2023/04/10 12:37:24;;;;;;;11.00;9.63;;;19.00;91.50;;;;;;4936517;29;20519;-76
2023/04/10 12:40:06;;;;;;;9.30;7.93;;;19.00;91.60;;;;;;4937913;29;20440;-77
2023/04/10 12:42:40;;;;;;;9.80;8.03;;;19.10;91.40;;;;;;4936164;29;20479;-76
2023/04/10 12:45:12;;;;;;;8.40;7.60;;;19.10;91.40;;;;;;4937369;29;20428;-76
2023/04/10 12:47:46;;;;;;;7.97;7.20;;;19.10;91.40;;;;;;4936055;29;20443;-76
2023/04/10 12:50:15;;;;;;;8.80;7.97;;;19.10;91.40;;;;;;4936461;29;20823;-76
2023/04/10 12:52:45;;;;;;;8.80;7.90;;;19.10;91.30;;;;;;4937711;29;20826;-76
2023/04/10 12:55:15;;;;;;;8.50;7.43;;;19.20;91.20;;;;;;4937511;29;20399;-77
2023/04/10 12:57:46;;;;;;;7.53;6.73;;;19.20;91.10;;;;;;4935955;29;20475;-77
2023/04/10 13:00:17;;;;;;;8.70;7.90;;;19.20;90.90;;;;;;4935912;29;21022;-76
2023/04/10 13:02:45;;;;;;;7.97;6.90;;;19.20;90.80;;;;;;4937052;29;20545;-76
2023/04/10 13:05:14;;;;;;;8.93;7.07;;;19.20;90.70;;;;;;4935701;29;20483;-76
2023/04/10 13:07:42;;;;;;;8.63;7.67;;;19.20;90.60;;;;;;4936923;29;20974;-76